Tiempo atmosférico en la estación meteorológica de Valdezcaray, estación de esquí, La Rioja (1630 m.)



Fecha
DESCASC
Temp. máxima en grados centígrados (hora)
DESCASC
Temp. mínima en grados centígrados (hora)
DESCASC
Temp. media en grados centígrados
DESCASC
Racha de viento máxima en m/sg (hora)
DESCASC
Velocidad máxima media en intervalos de 10 minutos(hora)
DESCASC
Precipitaciones diarias en mm
DESCASC
Precipitaciones de 00:00 a 06:00 en mm
DESCASC
Precipitaciones de 06:00 a 12:00 en mm
DESCASC
Precipitaciones de 12:00 a 18:00 en mm
DESCASC
Precipitaciones de 18:00 a 24:00 en mm
DESCASC
06-12-2018 9.9 (12:40) 3.1 (08:20) 6.5 8.89 (00:30) 4.17 (00:30) 0 0 0 0 0
05-12-2018 13.3 (13:30) 6.4 (23:40) 9.9 16.11 (16:20) 7.5 (15:20) 0 0 0 0 0
04-12-2018 13.3 (13:30) 6.3 (00:00) 9.8 10.28 (16:50) 5.28 (17:00) 0 0 0 0 0
03-12-2018 9.6 (04:10) 5.8 (00:00) 7.7 15.56 (12:00) 6.67 (12:00) 1.4 0 0 1.4 0
02-12-2018 11.8 (12:10) 5.7 (00:00) 8.8 14.72 (01:10) 7.5 (01:00) 0 0 0 0 0
01-12-2018 8.6 (23:40) -0.5 (-00:0) 4.1 13.33 (23:40) 7.5 (20:40) 0.6 0 0.6 0 0
30-11-2018 3 (00:20) -1.3 (-00:0) 0.9 9.17 (00:30) 4.44 (00:10) 0 0 0 0 0
29-11-2018 9.7 (01:20) 2.8 (00:00) 6.2 23.89 (09:50) 12.22 (10:00) 1.2 0 0 0.2 1
28-11-2018 11.1 (13:30) 4.5 (00:00) 7.8 16.39 (23:40) 8.06 (23:59) 0 0 0 0 0
27-11-2018 6.8 (13:50) -3 (-00:0) 1.9 11.67 (15:30) 6.94 (19:40) 0 0 0 0 0
26-11-2018 3.3 (01:50) -2.4 (07:10) 0.4 15.28 (04:10) 6.67 (04:10) 10 3.6 4.4 2 0
25-11-2018 4.6 (14:10) 0.2 (00:00) 2.4 23.89 (01:50) 10.56 (05:30) 4 3.2 0.4 0 0.4
24-11-2018 3.1 (22:20) -0.2 (00:00) 1.4 30 (19:50) 14.72 (19:50) 0.6 0.2 0 0 0.4
23-11-2018 3.2 (02:00) -0.5 (-00:0) 1.4 15 (23:59) 6.67 (01:10) 9 8 0.6 0.4 0
22-11-2018 2.8 (14:30) 0.5 (00:00) 1.6 20 (07:20) 11.39 (10:30) 0.6 0.6 0 0 0
21-11-2018 2.3 (17:50) 0.5 (00:00) 1.4 18.89 (18:40) 8.06 (23:30) 6.8 4 2 0.8 0
20-11-2018 2.5 (05:50) -0.2 (00:00) 1.1 14.17 (13:10) 7.5 (13:10) 21 3 11.4 3.2 3.4
19-11-2018 6.3 (13:30) 1.3 (00:00) 3.8 20 (01:50) 12.22 (03:20) 0.6 0.2 0 0 0.4
18-11-2018 6 (09:50) 2.7 (00:00) 4.4 17.22 (23:20) 8.06 (23:20) 2.6 0 0 1.4 1.2
17-11-2018 10.7 (13:30) 4.4 (00:00) 7.5 11.11 (01:20) 8.89 (01:30) 0 0 0 0 0
16-11-2018 10 (11:30) 6.7 (00:00) 8.3 12.78 (21:10) 9.72 (22:40) 0 0 0 0 0
15-11-2018 9 (14:40) 6 (00:00) 7.5 15.28 (03:30) 10 (00:10) 0 0 0 0 0
14-11-2018 13.1 (14:20) 6.9 (00:00) 10 13.33 (23:20) 10.28 (23:50) 0 0 0 0 0
13-11-2018 11.1 (14:50) 3 (00:00) 7.1 12.5 (13:30) 7.78 (19:50) 0 0 0 0 0
12-11-2018 7.7 (01:00) 4.1 (00:00) 5.9 17.78 (01:40) 9.17 (01:40) 8 0.2 3 4.4 0.4
11-11-2018 8.6 (13:20) 5 (00:00) 6.8 33.33 (06:20) 16.67 (06:20) 2.6 0 0.4 2 0.2
10-11-2018 6.7 (14:30) 4.8 (00:00) 5.8 32.78 (17:10) 14.72 (18:30) 7.4 1.4 3.2 2.6 0.2

Gráficas

Temp. máximas Temp. mínimas Temp. medias Precipitaciones Rachas de viento máximas Velocidades máximas media en intervalos de 10 minutos

Datos horarios

Fecha y hora oficial Temperatura (ºC) Velocidad del viento (km/h) Dirección del viento Racha (km/h) Dirección de racha Precipitación (mm) Presión (hPa) Tendencia (hPa) Humedad (%)
2018-12-09 23:00:00 3.9 4 Sur 13 Oeste 0 -- -- 40
2018-12-09 22:00:00 4.7 4 Sudoeste 12 Noroeste 0 -- -- 41
2018-12-09 21:00:00 4.4 4 Oeste 11 Oeste 0 -- -- 48
2018-12-09 20:00:00 3 4 Sudeste 14 Oeste 0 -- -- 60
2018-12-09 19:00:00 3.7 4 Nordeste 9 Noroeste 0 -- -- 55
2018-12-09 18:00:00 4.8 3 Sudeste 18 Noroeste 0 -- -- 42
2018-12-09 17:00:00 6.9 7 Noroeste 24 Noroeste 0 -- -- 31
2018-12-09 16:00:00 5.8 4 Noroeste 27 Noroeste 0 -- -- 60
2018-12-09 15:00:00 7.2 9 Noroeste 36 Noroeste 0 -- -- 39
2018-12-09 14:00:00 7.9 17 Noroeste 35 Noroeste 0 -- -- 26
2018-12-09 13:00:00 8.3 12 Noroeste 30 Noroeste 0 -- -- 30
2018-12-09 12:00:00 8.7 12 Noroeste 28 Noroeste 0 -- -- 23
2018-12-09 11:00:00 6.7 4 Noroeste 20 Noroeste 0 -- -- 37
2018-12-09 10:00:00 5.9 5 Norte 15 Noroeste 0 -- -- 56
2018-12-09 09:00:00 5.5 5 Oeste 11 Sudoeste 0 -- -- 63
2018-12-09 08:00:00 4.4 3 Este 16 Oeste 0 -- -- 73
2018-12-09 07:00:00 6 5 Norte 18 Oeste 0 -- -- 57
2018-12-09 06:00:00 7 6 Noroeste 17 Noroeste 0 -- -- 57
2018-12-09 05:00:00 7.7 8 Noroeste 21 Oeste 0 -- -- 67
2018-12-09 04:00:00 7.9 9 Noroeste 23 Noroeste 0 -- -- 77
2018-12-09 03:00:00 8.4 12 Noroeste 23 Oeste 0 -- -- 74
2018-12-09 02:00:00 8.5 12 Noroeste 25 Oeste 0 -- -- 70
2018-12-09 01:00:00 8.3 7 Oeste 21 Oeste 0 -- -- 66
2018-12-09 00:00:00 8.9 13 Noroeste 26 Noroeste 0 -- -- 58
2018-12-08 23:00:00 9.4 13 Noroeste 26 Oeste 0 -- -- 55
2018-12-08 22:00:00 9.5 14 Noroeste 29 Noroeste 0 -- -- 56
2018-12-08 21:00:00 9.4 13 Noroeste 30 Noroeste 0 -- -- 57
2018-12-08 20:00:00 8.6 9 Noroeste 23 Noroeste 0 -- -- 62
2018-12-08 19:00:00 8.6 6 Norte 23 Oeste 0 -- -- 59
2018-12-08 18:00:00 8 4 Sudoeste 15 Noroeste 0 -- -- 63
2018-12-08 17:00:00 8.3 5 Noroeste 15 Noroeste 0 -- -- 59
2018-12-08 16:00:00 7.4 4 Sur 12 Sudeste 0 -- -- 43
2018-12-08 15:00:00 6.6 5 Sur 15 Oeste 0 -- -- 37
2018-12-08 14:00:00 6.9 5 Oeste 15 Noroeste 0 -- -- 29
2018-12-08 13:00:00 8.6 6 Sur 15 Norte 0 -- -- 21
2018-12-08 12:00:00 4.8 6 Sur 15 Norte 0 -- -- 34
2018-12-08 11:00:00 2.5 9 Sur 17 Oeste 0 -- -- 64
2018-12-08 10:00:00 1.5 5 Sudoeste 14 Sur 0 -- -- 92
2018-12-08 09:00:00 0.3 5 Oeste 10 Oeste 0 -- -- 100
2018-12-08 08:00:00 -0.2 3 Sudeste 14 Este 0 -- -- 100
2018-12-08 07:00:00 0.6 6 Nordeste 21 Norte 0 -- -- 100
2018-12-08 06:00:00 1.6 9 Noroeste 19 Noroeste 0 -- -- 100
2018-12-08 05:00:00 1.6 4 Noroeste 21 Noroeste 0 -- -- 100
2018-12-08 04:00:00 2 5 Noroeste 18 Oeste 0 -- -- 100
2018-12-08 03:00:00 1.9 5 Noroeste 19 Noroeste 0 -- -- 100
2018-12-08 02:00:00 2.4 7 Noroeste 15 Noroeste 0 -- -- 100
2018-12-08 01:00:00 2.6 7 Noroeste 22 Noroeste 0 -- -- 100
2018-12-08 00:00:00 2.8 8 Noroeste 21 Noroeste 0 -- -- 100
2018-12-07 23:00:00 2.9 8 Noroeste 15 Noroeste 0 -- -- 100
2018-12-07 22:00:00 2.9 5 Noroeste 15 Noroeste 0 -- -- 100
2018-12-07 21:00:00 3.2 6 Noroeste 13 Noroeste 0 -- -- 100
2018-12-07 20:00:00 3.4 6 Noroeste 18 Noroeste 0 -- -- 99
2018-12-07 19:00:00 3.9 8 Noroeste 15 Noroeste 0 -- -- 100
2018-12-07 18:00:00 3.4 7 Noroeste 20 Noroeste 0 -- -- 98
2018-12-07 17:00:00 6.8 9 Noroeste 17 Oeste 0 -- -- 79
2018-12-07 16:00:00 8.5 7 Oeste 17 Oeste 0 -- -- 67
2018-12-07 15:00:00 7.6 4 Oeste 23 Norte 0 -- -- 59
2018-12-07 14:00:00 11.6 11 Noroeste 26 Noroeste 0 -- -- 41
2018-12-07 13:00:00 12.1 9 Noroeste 26 Oeste 0 -- -- 31
2018-12-07 12:00:00 11.7 12 Noroeste 24 Noroeste 0 -- -- 29
2018-12-07 11:00:00 6.5 9 Sudoeste 29 Oeste 0 -- -- 48
2018-12-07 10:00:00 7.8 6 Noroeste 28 Oeste 0 -- -- 36
2018-12-07 09:00:00 11 15 Oeste 28 Oeste 0 -- -- 24
2018-12-07 08:00:00 10.8 13 Noroeste 29 Noroeste 0 -- -- 26
2018-12-07 07:00:00 10 11 Noroeste 35 Noroeste 0 -- -- 22
2018-12-07 06:00:00 10.5 15 Noroeste 28 Oeste 0 -- -- 10
2018-12-07 05:00:00 10.1 9 Oeste 23 Oeste 0 -- -- 5
2018-12-07 04:00:00 8.8 8 Oeste 21 Oeste 0 -- -- 6
2018-12-07 03:00:00 7.9 5 Sudoeste 18 Oeste 0 -- -- 10
2018-12-07 02:00:00 8.2 7 Oeste 17 Oeste 0 -- -- 13
2018-12-07 01:00:00 6.4 0 Calma 15 Oeste 0 -- -- 23
2018-12-07 00:00:00 7.7 6 Oeste 16 Oeste 0 -- -- 17
2018-12-06 23:00:00 7.5 6 Oeste 15 Oeste 0 -- -- 19
2018-12-06 22:00:00 6.1 3 Norte 13 Oeste 0 -- -- 27
2018-12-06 21:00:00 6.8 5 Sudoeste 15 Oeste 0 -- -- 23
2018-12-06 20:00:00 6.4 4 Oeste 14 Noroeste 0 -- -- 27
2018-12-06 19:00:00 5.7 2 Sudoeste 12 Norte 0 -- -- 28
2018-12-06 18:00:00 5.6 4 Nordeste 12 Nordeste 0 -- -- 43
2018-12-06 17:00:00 4.7 6 Sur 18 Sudeste 0 -- -- 86
2018-12-06 16:00:00 4.8 6 Sur 12 Sur 0 -- -- 91
2018-12-06 15:00:00 4.8 3 Oeste 12 Norte 0 -- -- 93
2018-12-06 14:00:00 7.6 3 Sudeste 8 Noroeste 0 -- -- 64
2018-12-06 13:00:00 7.6 2 Oeste 10 Sur 0 -- -- 74
2018-12-06 12:00:00 8.2 6 Sudeste 19 Sur 0 -- -- 61
2018-12-06 11:00:00 5 4 Sudeste 12 Sur 0 -- -- 61
2018-12-06 10:00:00 4.9 5 Sur 15 Oeste 0 -- -- 62
2018-12-06 09:00:00 5.6 4 Sudoeste 14 Noroeste 0 -- -- 60
2018-12-06 08:00:00 4 3 Sudeste 12 Noroeste 0 -- -- 76
2018-12-06 07:00:00 6.5 5 Nordeste 23 Oeste 0 -- -- 52
2018-12-06 06:00:00 6.6 5 Noroeste 21 Noroeste 0 -- -- 57
2018-12-06 05:00:00 4.4 5 Norte 12 Norte 0 -- -- 84
2018-12-06 04:00:00 4.5 3 Sudeste 27 Noroeste 0 -- -- 88
2018-12-06 03:00:00 6.5 10 Noroeste 27 Noroeste 0 -- -- 83
2018-12-06 02:00:00 6.9 11 Noroeste 24 Noroeste 0 -- -- 80
2018-12-06 01:00:00 7.7 12 Oeste 32 Oeste 0 -- -- 75
2018-12-06 00:00:00 7.5 13 Noroeste 27 Noroeste 0 -- -- 78
2018-12-05 23:00:00 8 9 Noroeste 24 Noroeste 0 -- -- 72
2018-12-05 22:00:00 7.5 9 Noroeste 26 Oeste 0 -- -- 76
2018-12-05 21:00:00 8.1 10 Oeste 27 Oeste 0 -- -- 63
2018-12-05 20:00:00 7.9 14 Oeste 37 Sudoeste 0 -- -- 53
2018-12-05 19:00:00 9.1 12 Oeste 29 Norte 0 -- -- 45
2018-12-05 18:00:00 10.7 12 Norte 44 Norte 0 -- -- 30
2018-12-05 17:00:00 11.3 14 Este 58 Nordeste 0 -- -- 28
2018-12-05 16:00:00 11 13 Norte 56 Sur 0 -- -- 36
2018-12-05 15:00:00 12.5 18 Sudeste 56 Sur 0 -- -- 27
2018-12-05 14:00:00 12.2 15 Sudeste 41 Sudeste 0 -- -- 35
2018-12-05 13:00:00 12.8 18 Norte 45 Norte 0 -- -- 32
2018-12-05 12:00:00 12.1 9 Sur 21 Sur 0 -- -- 35
2018-12-05 11:00:00 11.6 6 Oeste 31 Sudoeste 0 -- -- 35
2018-12-05 10:00:00 11.9 9 Nordeste 32 Sur 0 -- -- 30
2018-12-05 09:00:00 12.9 13 Sudoeste 34 Sur 0 -- -- 22
2018-12-05 08:00:00 11.8 9 Noroeste 29 Sur 0 -- -- 24
2018-12-05 07:00:00 12.1 6 Sur 27 Norte 0 -- -- 22
2018-12-05 06:00:00 12.3 7 Norte 30 Sur 0 -- -- 23
2018-12-05 05:00:00 11.8 8 Oeste 26 Oeste 0 -- -- 30
2018-12-05 04:00:00 12 6 Oeste 20 Sudoeste 0 -- -- 32
2018-12-05 03:00:00 11.7 8 Sudoeste 21 Noroeste 0 -- -- 35
2018-12-05 02:00:00 11 9 Oeste 26 Sur 0 -- -- 40
2018-12-05 01:00:00 10.7 12 Noroeste 30 Sur 0 -- -- 47
2018-12-05 00:00:00 10.8 8 Oeste 28 Sudeste 0 -- -- 46
2018-12-04 23:00:00 11 9 Sudoeste 22 Oeste 0 -- -- 45
2018-12-04 22:00:00 11.2 7 Sudoeste 26 Oeste 0 -- -- 44
2018-12-04 21:00:00 11.8 8 Noroeste 28 Sudoeste 0 -- -- 43
2018-12-04 20:00:00 11.9 9 Sudoeste 28 Noroeste 0 -- -- 38
2018-12-04 19:00:00 11.6 10 Noroeste 35 Noroeste 0 -- -- 37
2018-12-04 18:00:00 11.5 7 Nordeste 35 Sur 0 -- -- 40
2018-12-04 17:00:00 12.4 19 Sur 37 Sur 0 -- -- 41
2018-12-04 16:00:00 11.9 5 Oeste 17 Noroeste 0 -- -- 48
2018-12-04 15:00:00 11.8 6 Sur 20 Sur 0 -- -- 51
2018-12-04 14:00:00 13.1 3 Sur 14 Norte 0 -- -- 55
2018-12-04 13:00:00 12.7 6 Norte 20 Sur 0 -- -- 54
2018-12-04 12:00:00 12.1 6 Oeste 19 Sudoeste 0 -- -- 43
2018-12-04 11:00:00 10.5 8 Sudoeste 20 Sur 0 -- -- 63
2018-12-04 10:00:00 9.5 8 Sudoeste 18 Noroeste 0 -- -- 60
2018-12-04 09:00:00 9.4 10 Sudoeste 21 Oeste 0 -- -- 72
2018-12-04 08:00:00 8.1 7 Sudoeste 17 Oeste 0 -- -- 78
2018-12-04 07:00:00 7.5 4 Nordeste 15 Sudoeste 0 -- -- 85
2018-12-04 06:00:00 9.1 7 Sudoeste 15 Sudoeste 0 -- -- 80
2018-12-04 05:00:00 9.5 6 Oeste 16 Oeste 0 -- -- 75
2018-12-04 04:00:00 8.9 6 Sudoeste 13 Sudoeste 0 -- -- 75
2018-12-04 03:00:00 8.7 4 Oeste 14 Oeste 0 -- -- 80
2018-12-04 02:00:00 8.6 8 Sudoeste 20 Sudoeste 0 -- -- 82
2018-12-04 01:00:00 7.2 6 Sudoeste 12 Sudoeste 0 -- -- 89
2018-12-04 00:00:00 6.3 3 Sudeste 10 Sudeste 0 -- -- 92
2018-12-03 23:00:00 6.3 5 Sudeste 8 Sur 0 -- -- 88
2018-12-03 22:00:00 6.9 5 Este 14 Sudeste 0 -- -- 90
2018-12-03 21:00:00 6.4 9 Sudeste 13 Sudeste 0 -- -- 93
2018-12-03 20:00:00 7.5 4 Sudeste 9 Sudoeste 0 -- -- 90
2018-12-03 19:00:00 7.8 3 Sudeste 15 Oeste 0 -- -- 94
2018-12-03 18:00:00 8.4 3 Noroeste 23 Oeste 0 -- -- 92
2018-12-03 17:00:00 9.3 8 Noroeste 26 Oeste 0 -- -- 87
2018-12-03 16:00:00 9.3 9 Noroeste 27 Noroeste 0.2 -- -- 88
2018-12-03 15:00:00 8.7 10 Noroeste 40 Noroeste 0.4 -- -- 88
2018-12-03 14:00:00 8.3 11 Noroeste 35 Noroeste 0.8 -- -- 93
2018-12-03 13:00:00 8.7 10 Noroeste 43 Noroeste 0 -- -- 86
2018-12-03 12:00:00 9.1 24 Norte 56 Norte 0 -- -- 81
2018-12-03 11:00:00 9 16 Norte 37 Norte 0 -- -- 80
2018-12-03 10:00:00 8.5 7 Oeste 21 Sudoeste 0 -- -- 80
2018-12-03 09:00:00 8.1 8 Sudoeste 21 Sudoeste 0 -- -- 82
2018-12-03 08:00:00 7.6 11 Sudoeste 21 Oeste 0 -- -- 82
2018-12-03 07:00:00 8.1 5 Oeste 30 Noroeste 0 -- -- 77
2018-12-03 06:00:00 8.2 9 Noroeste 27 Noroeste 0 -- -- 80
2018-12-03 05:00:00 8.9 12 Noroeste 30 Oeste 0 -- -- 75
2018-12-03 04:00:00 9.3 13 Noroeste 32 Oeste 0 -- -- 76
2018-12-03 03:00:00 9.2 13 Oeste 34 Sur 0 -- -- 78
2018-12-03 02:00:00 8.8 14 Oeste 39 Sudoeste 0 -- -- 73
2018-12-03 01:00:00 8.6 17 Sudoeste 43 Sudoeste 0 -- -- 64
2018-12-03 00:00:00 8 8 Noroeste 35 Oeste 0 -- -- 58
2018-12-02 23:00:00 9.2 14 Oeste 34 Oeste 0 -- -- 53
2018-12-02 22:00:00 9.8 12 Oeste 36 Oeste 0 -- -- 51
2018-12-02 21:00:00 9.4 12 Oeste 33 Oeste 0 -- -- 49
2018-12-02 20:00:00 9.4 12 Oeste 29 Oeste 0 -- -- 50
2018-12-02 19:00:00 8.9 6 Oeste 28 Noroeste 0 -- -- 50
2018-12-02 18:00:00 9 8 Oeste 30 Sur 0 -- -- 55
2018-12-02 17:00:00 9.2 10 Sudoeste 39 Noroeste 0 -- -- 57
2018-12-02 16:00:00 9.4 13 Sur 28 Norte 0 -- -- 60
2018-12-02 15:00:00 9.6 8 Sudoeste 27 Oeste 0 -- -- 59
2018-12-02 14:00:00 10.4 8 Sudoeste 41 Sudoeste 0 -- -- 50
2018-12-02 13:00:00 11.3 12 Noroeste 31 Oeste 0 -- -- 31
2018-12-02 12:00:00 11.7 17 Noroeste 35 Norte 0 -- -- 30
2018-12-02 11:00:00 11.1 16 Sudoeste 34 Sudoeste 0 -- -- 40
2018-12-02 10:00:00 9.8 15 Sudoeste 36 Sudoeste 0 -- -- 46
2018-12-02 09:00:00 9.2 20 Sudoeste 35 Sudoeste 0 -- -- 42
2018-12-02 08:00:00 9.1 15 Sudoeste 28 Sudoeste 0 -- -- 66
2018-12-02 07:00:00 8.4 8 Oeste 33 Noroeste 0 -- -- 72
2018-12-02 06:00:00 8.9 9 Oeste 36 Oeste 0 -- -- 71
2018-12-02 05:00:00 8.8 12 Oeste 35 Oeste 0 -- -- 76
2018-12-02 04:00:00 8.9 12 Oeste 36 Noroeste 0 -- -- 69
2018-12-02 03:00:00 7.2 15 Oeste 40 Sudoeste 0 -- -- 66
2018-12-02 02:00:00 6.1 23 Sudoeste 53 Sudoeste 0 -- -- 69
2018-12-02 01:00:00 6 27 Sudoeste 47 Sudoeste 0 -- -- 74
2018-12-02 00:00:00 7.4 18 Sudoeste 48 Sudoeste 0 -- -- 71
2018-12-01 23:00:00 6.9 18 Sudoeste 38 Sur 0 -- -- 70
2018-12-01 22:00:00 7.1 23 Sudoeste 43 Sudoeste 0 -- -- 75
2018-12-01 21:00:00 6.3 25 Sudoeste 45 Sudoeste 0 -- -- 75
2018-12-01 20:00:00 7.3 17 Sudoeste 45 Sudoeste 0 -- -- 78
2018-12-01 19:00:00 6.4 4 Sudeste 18 Sudoeste 0 -- -- 90
2018-12-01 18:00:00 7.4 4 Sudeste 17 Sur 0 -- -- 89
2018-12-01 17:00:00 6.9 5 Oeste 17 Oeste 0 -- -- 90
2018-12-01 16:00:00 6 0 Calma 19 Noroeste 0 -- -- 90
2018-12-01 15:00:00 5.6 3 Nordeste 30 Sudoeste 0 -- -- 90
2018-12-01 14:00:00 3.7 19 Sudoeste 41 Sudoeste 0 -- -- 83
2018-12-01 13:00:00 3.9 24 Sudoeste 39 Sudoeste 0 -- -- 76
2018-12-01 12:00:00 3.4 20 Sudoeste 40 Sur 0 -- -- 79
2018-12-01 11:00:00 3.1 17 Sudoeste 36 Sudoeste 0.2 -- -- 81
2018-12-01 10:00:00 4.8 12 Oeste 39 Sudoeste 0 -- -- 72
2018-12-01 09:00:00 3.8 11 Sudoeste 36 Oeste 0.4 -- -- 80
2018-12-01 08:00:00 3.2 11 Oeste 36 Oeste 0 -- -- 81
2018-12-01 07:00:00 4.2 12 Oeste 35 Oeste 0 -- -- 65
2018-12-01 06:00:00 3.7 17 Sudoeste 35 Sudoeste 0 -- -- 64
2018-12-01 05:00:00 3.1 21 Sudoeste 38 Sudoeste 0 -- -- 52
2018-12-01 04:00:00 2.4 24 Sudoeste 41 Sudoeste 0 -- -- 57
2018-12-01 03:00:00 2.4 17 Sudoeste 39 Sudoeste 0 -- -- 49
2018-12-01 02:00:00 0.8 18 Sudoeste 32 Sudoeste 0 -- -- 71
2018-12-01 01:00:00 1.3 5 Norte 23 Sudoeste 0 -- -- 60
2018-12-01 00:00:00 -0.5 6 Este 10 Sudoeste 0 -- -- 87
2018-11-30 23:00:00 -0.2 5 Oeste 13 Oeste 0 -- -- 81
2018-11-30 22:00:00 -0.8 3 Oeste 9 Oeste 0 -- -- 80
2018-11-30 21:00:00 -0.3 5 Sudoeste 9 Oeste 0 -- -- 81
2018-11-30 20:00:00 -0.5 3 Sudoeste 12 Sudeste 0 -- -- 80
2018-11-30 19:00:00 -1.2 6 Sudeste 11 Sudeste 0 -- -- 84
2018-11-30 18:00:00 -0.7 4 Sudeste 10 Sudeste 0 -- -- 83
2018-11-30 17:00:00 0.1 5 Sudeste 10 Sur 0 -- -- 85
2018-11-30 16:00:00 -0.6 9 Sur 13 Oeste 0 -- -- 86
2018-11-30 15:00:00 0.6 9 Noroeste 20 Noroeste 0 -- -- 87
2018-11-30 14:00:00 1.9 10 Noroeste 19 Noroeste 0 -- -- 75
2018-11-30 13:00:00 2.5 5 Oeste 13 Noroeste 0 -- -- 75
2018-11-30 12:00:00 1.4 4 Noroeste 10 Noroeste 0 -- -- 87
2018-11-30 11:00:00 0.7 2 Noroeste 8 Oeste 0 -- -- 92
2018-11-30 10:00:00 0.3 4 Noroeste 10 Noroeste 0 -- -- 100
2018-11-30 09:00:00 0.1 4 Noroeste 8 Noroeste 0 -- -- 100
2018-11-30 08:00:00 -0.1 0 Calma 15 Noroeste 0 -- -- 100
2018-11-30 07:00:00 0.6 3 Sudeste 11 Norte 0 -- -- 93
2018-11-30 06:00:00 0.4 6 Sudeste 11 Sudeste 0 -- -- 91
2018-11-30 05:00:00 1.2 6 Oeste 20 Oeste 0 -- -- 83
2018-11-30 04:00:00 1.4 6 Noroeste 22 Noroeste 0 -- -- 79
2018-11-30 03:00:00 1.5 8 Noroeste 17 Noroeste 0 -- -- 92
2018-11-30 02:00:00 1.4 6 Noroeste 24 Noroeste 0 -- -- 97
2018-11-30 01:00:00 1.9 11 Noroeste 33 Noroeste 0 -- -- 93
2018-11-30 00:00:00 2.8 18 Norte 32 Norte 0 -- -- 90
2018-11-29 23:00:00 3.8 11 Este 32 Noroeste 0 -- -- 81
2018-11-29 22:00:00 3.8 9 Sudeste 55 Sur 0 -- -- 82
2018-11-29 21:00:00 4.2 13 Sudeste 50 Sur 0.8 -- -- 81
2018-11-29 20:00:00 4.6 14 Nordeste 45 Norte 0.2 -- -- 88
2018-11-29 19:00:00 5.2 17 Sudeste 64 Sur 0 -- -- 82
2018-11-29 18:00:00 5.8 19 Este 60 Sur 0.2 -- -- 80
2018-11-29 17:00:00 5.4 7 Noroeste 29 Sur 0 -- -- 54
2018-11-29 16:00:00 6.3 5 Sur 54 Norte 0 -- -- 30
2018-11-29 15:00:00 7.6 15 Sudeste 44 Sur 0 -- -- 23
2018-11-29 14:00:00 8.4 9 Sudoeste 43 Sur 0 -- -- 24
2018-11-29 13:00:00 7.2 10 Sur 42 Sur 0 -- -- 20
2018-11-29 12:00:00 8.1 18 Sur 77 Sur 0 -- -- 15
2018-11-29 11:00:00 6.6 36 Sur 85 Sur 0 -- -- 21
2018-11-29 10:00:00 7 44 Sur 86 Sur 0 -- -- 19
2018-11-29 09:00:00 7 19 Sudeste 51 Sur 0 -- -- 16
2018-11-29 08:00:00 6.7 8 Sudeste 35 Sudeste 0 -- -- 6
2018-11-29 07:00:00 7.4 21 Sur 46 Sudeste 0 -- -- 9
2018-11-29 06:00:00 7.3 14 Sudeste 46 Sudeste 0 -- -- 15
2018-11-29 05:00:00 7 12 Nordeste 49 Noroeste 0 -- -- 17
2018-11-29 04:00:00 7.1 8 Nordeste 31 Sur 0 -- -- 18
2018-11-29 03:00:00 8.9 16 Sudeste 49 Sur 0 -- -- 18
2018-11-29 02:00:00 9.5 20 Sur 75 Sur 0 -- -- 17
2018-11-29 01:00:00 9.2 34 Sudeste 69 Sur 0 -- -- 18
2018-11-29 00:00:00 8.8 29 Sur 59 Sur 0 -- -- 18
2018-11-28 23:00:00 9.5 12 Sudoeste 42 Sur 0 -- -- 14
2018-11-28 22:00:00 8.5 6 Noroeste 19 Noroeste 0 -- -- 14
2018-11-28 21:00:00 7.4 6 Oeste 28 Sur 0 -- -- 20
2018-11-28 13:00:00 -- -- -- -- -- -- -- -- --
2018-11-28 12:00:00 10 10 Oeste 40 Oeste 0 -- -- 11
2018-11-28 11:00:00 8.9 21 Sudoeste 39 Sudoeste 0 -- -- 9
2018-11-28 10:00:00 9.5 13 Sudoeste 40 Sudoeste 0 -- -- 13
2018-11-28 09:00:00 9 18 Sudoeste 39 Sur 0 -- -- 16
2018-11-28 08:00:00 8.7 20 Sudoeste 37 Sudoeste 0 -- -- 19
2018-11-28 07:00:00 8.2 22 Sudoeste 39 Sudoeste 0 -- -- 21
2018-11-28 06:00:00 7.7 24 Sudoeste 44 Sudoeste 0 -- -- 19
2018-11-28 05:00:00 7.9 21 Sudoeste 33 Sudoeste 0 -- -- 24
2018-11-28 04:00:00 7 21 Sudoeste 35 Sudoeste 0 -- -- 29
2018-11-28 03:00:00 6 18 Sudoeste 33 Sudoeste 0 -- -- 26
2018-11-28 02:00:00 5.8 12 Sudoeste 25 Sudoeste 0 -- -- 17
2018-11-28 01:00:00 6.5 16 Sudoeste 32 Oeste 0 -- -- 18
2018-11-28 00:00:00 6.4 16 Sudoeste 35 Sudoeste 0 -- -- 23
2018-11-27 23:00:00 5.8 18 Sudoeste 39 Sudoeste 0 -- -- 21
2018-11-27 22:00:00 6.4 17 Sudoeste 37 Sudoeste 0 -- -- 19
2018-11-27 21:00:00 4.4 19 Sudoeste 39 Sudoeste 0 -- -- 25
2018-11-27 20:00:00 3.9 25 Sudoeste 37 Sudoeste 0 -- -- 38
2018-11-27 19:00:00 4 21 Sudoeste 35 Sudoeste 0 -- -- 44
2018-11-27 18:00:00 3.8 16 Sudoeste 32 Sudoeste 0 -- -- 53
2018-11-27 17:00:00 3.8 14 Sudoeste 32 Norte 0 -- -- 56
2018-11-27 16:00:00 4.7 10 Este 42 Noroeste 0 -- -- 52
2018-11-27 15:00:00 5.4 17 Norte 41 Norte 0 -- -- 53
2018-11-27 14:00:00 6.2 6 Sudoeste 15 Oeste 0 -- -- 54
2018-11-27 13:00:00 5.5 8 Oeste 24 Oeste 0 -- -- 51
2018-11-27 12:00:00 4.7 12 Oeste 23 Oeste 0 -- -- 58
2018-11-27 11:00:00 3.1 11 Oeste 26 Noroeste 0 -- -- 81
2018-11-27 10:00:00 0.5 5 Sudoeste 12 Oeste 0 -- -- 95
2018-11-27 09:00:00 -0.5 4 Noroeste 14 Oeste 0 -- -- 94
2018-11-27 08:00:00 -0.9 7 Sudoeste 13 Oeste 0 -- -- 94
2018-11-27 07:00:00 -2.3 4 Sudeste 18 Noroeste 0 -- -- 93
2018-11-27 06:00:00 -2.8 7 Noroeste 17 Oeste 0 -- -- 97
2018-11-27 05:00:00 -1.5 4 Noroeste 11 Noroeste 0 -- -- 100
2018-11-27 04:00:00 -1 2 Sur 10 Oeste 0 -- -- 100
2018-11-27 03:00:00 -0.4 6 Noroeste 13 Noroeste 0 -- -- 100
2018-11-27 02:00:00 -0.3 6 Noroeste 17 Noroeste 0 -- -- 100
2018-11-27 01:00:00 -0.3 9 Noroeste 15 Noroeste 0 -- -- 100
2018-11-27 00:00:00 -0.4 8 Noroeste 24 Noroeste 0 -- -- 100
2018-11-26 23:00:00 -0.1 12 Noroeste 25 Noroeste 0 -- -- 100
2018-11-26 22:00:00 0 14 Noroeste 30 Noroeste 0 -- -- 100
2018-11-26 21:00:00 -0.1 15 Noroeste 31 Noroeste 0 -- -- 100
2018-11-26 20:00:00 -0.2 14 Noroeste 25 Noroeste 0 -- -- 100
2018-11-26 19:00:00 -0.1 13 Noroeste 32 Noroeste 0 -- -- 100
2018-11-26 18:00:00 0 14 Noroeste 35 Noroeste 0.2 -- -- 100
2018-11-26 17:00:00 0 20 Noroeste 36 Noroeste 0.2 -- -- 100
2018-11-26 16:00:00 -0.1 17 Noroeste 37 Noroeste 0.2 -- -- 100
2018-11-26 15:00:00 -0.2 14 Noroeste 33 Noroeste 0 -- -- 100
2018-11-26 14:00:00 -0.5 15 Noroeste 33 Oeste 1 -- -- 100
2018-11-26 13:00:00 -0.8 13 Noroeste 28 Noroeste 0.4 -- -- 100
2018-11-26 12:00:00 -1.2 9 Noroeste 18 Noroeste 0 -- -- 100
2018-11-26 11:00:00 -1.6 10 Noroeste 28 Noroeste 0 -- -- 100
2018-11-26 10:00:00 -1.8 13 Noroeste 23 Noroeste 0 -- -- 100
2018-11-26 09:00:00 -2.1 6 Noroeste 15 Noroeste 0.6 -- -- 100
2018-11-26 08:00:00 -2.3 8 Noroeste 21 Noroeste 1.6 -- -- 100
2018-11-26 07:00:00 -2.3 10 Noroeste 19 Oeste 2.2 -- -- 100
2018-11-26 06:00:00 -1.6 9 Noroeste 16 Noroeste 2 -- -- 100
2018-11-26 05:00:00 -0.8 9 Noroeste 55 Noroeste 1 -- -- 100
2018-11-26 04:00:00 1 16 Norte 43 Norte 0.4 -- -- 97
2018-11-26 03:00:00 1.8 5 Noroeste 25 Este 0 -- -- 95
2018-11-26 02:00:00 2.8 17 Sudeste 37 Sur 0 -- -- 90
2018-11-26 01:00:00 1.5 8 Sur 23 Sudeste 0.2 -- -- 91
2018-11-26 00:00:00 1.1 6 Norte 15 Norte 0.2 -- -- 91
2018-11-25 23:00:00 0.4 4 Noroeste 33 Oeste 0.2 -- -- 95
2018-11-25 22:00:00 2.4 11 Norte 66 Norte 0 -- -- 75
2018-11-25 21:00:00 2.8 7 Norte 21 Noroeste 0 -- -- 43
2018-11-25 20:00:00 3.4 6 Nordeste 23 Oeste 0 -- -- 24
2018-11-25 19:00:00 2.6 12 Sudoeste 27 Sudoeste 0 -- -- 28
2018-11-25 18:00:00 2.3 6 Oeste 25 Norte 0 -- -- 60
2018-11-25 17:00:00 3.1 5 Noroeste 20 Noroeste 0 -- -- 56
2018-11-25 16:00:00 3.5 4 Oeste 10 Noroeste 0 -- -- 54
2018-11-25 15:00:00 2.7 3 Sudoeste 19 Norte 0 -- -- 80
2018-11-25 14:00:00 4.2 5 Sur 9 Sur 0 -- -- 71
2018-11-25 13:00:00 3.4 3 Oeste 11 Noroeste 0 -- -- 73
2018-11-25 12:00:00 1.7 6 Noroeste 15 Noroeste 0 -- -- 96
2018-11-25 11:00:00 0.4 8 Norte 22 Norte 0 -- -- 100
2018-11-25 10:00:00 1 9 Norte 15 Norte 0 -- -- 100
2018-11-25 09:00:00 1.3 13 Noroeste 24 Noroeste 0 -- -- 100
2018-11-25 08:00:00 2.3 13 Noroeste 37 Norte 0.2 -- -- 100
2018-11-25 07:00:00 3.1 15 Noroeste 55 Noroeste 0.2 -- -- 100
2018-11-25 06:00:00 3.5 31 Norte 73 Norte 0.4 -- -- 95
2018-11-25 05:00:00 2.7 21 Norte 51 Norte 1.8 -- -- 97
2018-11-25 04:00:00 3.4 25 Norte 70 Sudeste 0.6 -- -- 93
2018-11-25 03:00:00 3.3 22 Nordeste 70 Noroeste 0.2 -- -- 95
2018-11-25 02:00:00 3.2 26 Nordeste 86 Norte 0.2 -- -- 96
2018-11-25 01:00:00 3.2 23 Norte 63 Norte 0 -- -- 91
2018-11-25 00:00:00 3 17 Nordeste 82 Sur 0.4 -- -- 91
2018-11-24 23:00:00 1.6 41 Sudeste 97 Sur 0 -- -- 87
2018-11-24 22:00:00 2.1 53 Sudeste 107 Sur 0 -- -- 80
2018-11-24 21:00:00 2.2 45 Sudeste 78 Sudeste 0 -- -- 79
2018-11-24 20:00:00 2.4 46 Sudeste 108 Sur 0 -- -- 77
2018-11-24 19:00:00 2.2 34 Sur 88 Sur 0 -- -- 76
2018-11-24 18:00:00 1.9 37 Sudeste 75 Sudeste 0 -- -- 81
2018-11-24 17:00:00 1.7 29 Sudeste 63 Sur 0 -- -- 82
2018-11-24 16:00:00 1.5 19 Sudeste 54 Sur 0 -- -- 87
2018-11-24 15:00:00 1.6 28 Sudeste 72 Sur 0 -- -- 88
2018-11-24 14:00:00 1.6 31 Sur 69 Sur 0 -- -- 85
2018-11-24 13:00:00 1.2 15 Sudeste 50 Sur 0 -- -- 90
2018-11-24 12:00:00 1.3 29 Sudeste 59 Sur 0 -- -- 86
2018-11-24 11:00:00 1.2 17 Sudeste 51 Sudeste 0 -- -- 89
2018-11-24 10:00:00 1.3 10 Sudeste 38 Este 0 -- -- 86
2018-11-24 09:00:00 1.5 12 Sudeste 41 Noroeste 0 -- -- 84
2018-11-24 08:00:00 1 12 Noroeste 37 Oeste 0 -- -- 85
2018-11-24 07:00:00 0.9 10 Oeste 60 Norte 0 -- -- 86
2018-11-24 06:00:00 0.2 14 Norte 42 Noroeste 0 -- -- 91
2018-11-24 05:00:00 0.1 15 Norte 53 Sur 0 -- -- 92
2018-11-24 04:00:00 0.1 17 Norte 49 Norte 0 -- -- 92
2018-11-24 03:00:00 0.2 17 Norte 52 Sur 0 -- -- 90
2018-11-24 02:00:00 -0.2 14 Nordeste 60 Noroeste 0 -- -- 97
2018-11-24 01:00:00 -0.1 21 Este 53 Sudeste 0.2 -- -- 97
2018-11-24 00:00:00 0.4 13 Sudeste 54 Sur 0 -- -- 93
2018-11-23 23:00:00 0.5 13 Nordeste 45 Sudeste 0 -- -- 89
2018-11-23 22:00:00 0.5 11 Noroeste 42 Sur 0 -- -- 85
2018-11-23 21:00:00 0.5 19 Sudeste 43 Sur 0 -- -- 82
2018-11-23 20:00:00 0.3 9 Noroeste 36 Sur 0 -- -- 80
2018-11-23 19:00:00 0.4 9 Nordeste 38 Sur 0 -- -- 82
2018-11-23 18:00:00 0.4 12 Este 41 Sur 0 -- -- 82
2018-11-23 17:00:00 0.4 16 Sudeste 40 Sur 0 -- -- 86
2018-11-23 16:00:00 0.5 11 Norte 37 Sudoeste 0 -- -- 84
2018-11-23 15:00:00 0.5 17 Sudeste 49 Sur 0.2 -- -- 79
2018-11-23 14:00:00 -0.1 12 Norte 38 Sudeste 0 -- -- 86
2018-11-23 13:00:00 -0.1 12 Norte 35 Sur 0.2 -- -- 95
2018-11-23 12:00:00 0.3 14 Sudeste 41 Sudeste 0 -- -- 86
2018-11-23 11:00:00 0.1 9 Sudeste 31 Sudeste 0 -- -- 91
2018-11-23 10:00:00 -0.2 6 Norte 25 Norte 0 -- -- 94
2018-11-23 09:00:00 -0.1 8 Noroeste 26 Norte 0 -- -- 96
2018-11-23 08:00:00 -0.3 8 Norte 16 Noroeste 0 -- -- 97
2018-11-23 07:00:00 -0.3 6 Noroeste 27 Noroeste 0.6 -- -- 99
2018-11-23 06:00:00 -0.5 3 Noroeste 6 Noroeste 3.6 -- -- 100
2018-11-23 05:00:00 0.2 0 Calma 28 Sur 2.2 -- -- 99
2018-11-23 04:00:00 2.2 13 Sur 41 Sur 2.2 -- -- 86
2018-11-23 03:00:00 2.4 8 Sudeste 35 Sur 0 -- -- 86
2018-11-23 02:00:00 3.2 21 Sudeste 37 Sudeste 0 -- -- 77
2018-11-23 01:00:00 2.9 21 Sudeste 48 Sur 0 -- -- 78
2018-11-23 00:00:00 2.5 22 Sudeste 49 Sur 0 -- -- 83
2018-11-22 23:00:00 2.6 13 Sudeste 55 Sudeste 0 -- -- 81
2018-11-22 22:00:00 2.7 21 Sudeste 53 Sur 0 -- -- 80
2018-11-22 21:00:00 2.3 12 Sudeste 35 Sur 0 -- -- 84
2018-11-22 20:00:00 2.6 17 Sudeste 35 Sur 0 -- -- 80
2018-11-22 19:00:00 2.3 20 Sudeste 39 Sur 0 -- -- 84
2018-11-22 18:00:00 2.6 18 Sudeste 47 Sur 0 -- -- 79
2018-11-22 17:00:00 2.5 14 Sudeste 49 Sur 0 -- -- 79
2018-11-22 16:00:00 2.6 26 Sudeste 51 Sur 0 -- -- 78
2018-11-22 15:00:00 2.7 19 Sudeste 41 Sur 0 -- -- 80
2018-11-22 14:00:00 2.6 13 Sudeste 46 Sur 0 -- -- 78
2018-11-22 13:00:00 2.3 27 Sudeste 66 Sur 0 -- -- 79
2018-11-22 12:00:00 2 26 Sudeste 67 Sur 0 -- -- 79
2018-11-22 11:00:00 1.9 28 Sudeste 67 Sur 0 -- -- 76
2018-11-22 10:00:00 1.5 33 Sudeste 69 Sur 0 -- -- 78
2018-11-22 09:00:00 1.3 40 Sudeste 67 Sudeste 0 -- -- 75
2018-11-22 08:00:00 0.9 36 Sudeste 72 Sudeste 0 -- -- 81
2018-11-22 07:00:00 0.9 28 Sudeste 70 Sur 0 -- -- 81
2018-11-22 06:00:00 0.8 17 Sudeste 55 Sudeste 0 -- -- 85
2018-11-22 05:00:00 0.9 21 Sudeste 64 Sudeste 0 -- -- 80
2018-11-22 04:00:00 0.8 25 Sudeste 67 Sur 0 -- -- 84
2018-11-22 03:00:00 0.7 19 Sudeste 69 Sur 0.2 -- -- 83
2018-11-22 02:00:00 0.8 15 Sudeste 53 Sur 0.2 -- -- 81
2018-11-22 01:00:00 1 19 Sudeste 65 Sur 0.2 -- -- 83
2018-11-22 00:00:00 1.2 23 Sudeste 62 Sudeste 0 -- -- 84
2018-11-21 23:00:00 1.5 15 Sudeste 55 Sudeste 0 -- -- 84
2018-11-21 22:00:00 1.7 28 Sudeste 59 Sudeste 0 -- -- 83
2018-11-21 21:00:00 1.9 17 Sur 49 Sur 0 -- -- 81
2018-11-21 20:00:00 2 22 Sudeste 55 Sudeste 0 -- -- 80
2018-11-21 19:00:00 2 19 Sudeste 68 Sur 0 -- -- 76
2018-11-21 18:00:00 2.1 23 Sudeste 49 Sur 0 -- -- 81
2018-11-21 17:00:00 1.8 17 Sudeste 48 Sur 0.2 -- -- 87
2018-11-21 16:00:00 1.9 9 Sudeste 45 Sur 0 -- -- 86
2018-11-21 15:00:00 1.6 11 Nordeste 42 Norte 0 -- -- 89
2018-11-21 14:00:00 0.7 10 Nordeste 39 Nordeste 0.6 -- -- 97
2018-11-21 13:00:00 0.9 12 Nordeste 54 Sur 0 -- -- 92
2018-11-21 12:00:00 0.9 21 Sudeste 56 Sur 0.2 -- -- 93
2018-11-21 11:00:00 0.8 21 Sudeste 42 Sur 0.4 -- -- 94
2018-11-21 10:00:00 1.1 14 Sudeste 41 Sudeste 0.2 -- -- 86
2018-11-21 09:00:00 1 18 Este 55 Noroeste 0 -- -- 92
2018-11-21 08:00:00 0.8 15 Norte 35 Sur 0.4 -- -- 95
2018-11-21 07:00:00 0.8 24 Norte 44 Norte 0.8 -- -- 96
2018-11-21 06:00:00 0.5 9 Norte 32 Norte 1.6 -- -- 98
2018-11-21 05:00:00 0.9 13 Norte 44 Sur 1.6 -- -- 96
2018-11-21 04:00:00 1.6 21 Sudeste 49 Norte 0.2 -- -- 94
2018-11-21 03:00:00 1.5 17 Norte 53 Norte 0.4 -- -- 97
2018-11-21 02:00:00 1.3 14 Este 53 Norte 0.2 -- -- 95
2018-11-21 01:00:00 1.4 12 Nordeste 38 Norte 0 -- -- 94
2018-11-21 00:00:00 1.1 13 Nordeste 36 Sudeste 0.4 -- -- 97
2018-11-20 23:00:00 0.7 19 Norte 42 Norte 0.2 -- -- 100
2018-11-20 22:00:00 0.8 8 Norte 46 Norte 0.6 -- -- 100
2018-11-20 21:00:00 0.9 12 Norte 47 Norte 0.6 -- -- 100
2018-11-20 20:00:00 0.9 18 Norte 46 Norte 0.8 -- -- 100
2018-11-20 19:00:00 0.8 16 Norte 33 Nordeste 0.8 -- -- 98
2018-11-20 18:00:00 0.6 9 Nordeste 27 Norte 0 -- -- 100
2018-11-20 17:00:00 0.3 14 Norte 40 Noroeste 0 -- -- 100
2018-11-20 16:00:00 0.5 19 Norte 37 Noroeste 1.8 -- -- 100
2018-11-20 15:00:00 0 11 Noroeste 36 Noroeste 0.8 -- -- 100
2018-11-20 14:00:00 1.4 12 Norte 51 Norte 0.2 -- -- 96
2018-11-20 13:00:00 1.3 18 Norte 37 Norte 0.4 -- -- 100
2018-11-20 12:00:00 0.6 6 Nordeste 21 Sudeste 2.2 -- -- 100
2018-11-20 11:00:00 0.3 6 Norte 15 Noroeste 2.2 -- -- 100
2018-11-20 10:00:00 1.6 5 Norte 21 Norte 1 -- -- 100
2018-11-20 09:00:00 1.8 10 Norte 26 Norte 2.2 -- -- 100
2018-11-20 08:00:00 0.5 4 Noroeste 35 Noroeste 1.8 -- -- 100
2018-11-20 07:00:00 1.7 14 Norte 33 Norte 2 -- -- 95
2018-11-20 06:00:00 2.5 11 Norte 26 Norte 0.4 -- -- 93
2018-11-20 05:00:00 1.8 4 Norte 19 Norte 0.6 -- -- 94
2018-11-20 04:00:00 2.1 10 Norte 35 Norte 0.2 -- -- 95
2018-11-20 03:00:00 2.2 13 Noroeste 26 Noroeste 0.4 -- -- 92
2018-11-20 02:00:00 1.6 6 Noroeste 16 Noroeste 0.2 -- -- 99
2018-11-20 01:00:00 1.4 6 Noroeste 17 Oeste 1.2 -- -- 100
2018-11-20 00:00:00 1.6 6 Noroeste 12 Norte 0.4 -- -- 99
2018-11-19 23:00:00 2.5 7 Oeste 15 Noroeste 0 -- -- 88
2018-11-19 22:00:00 2.7 7 Oeste 18 Noroeste 0 -- -- 89
2018-11-19 21:00:00 2.6 3 Noroeste 8 Noroeste 0 -- -- 95
2018-11-19 20:00:00 2.4 0 Calma 8 Noroeste 0 -- -- 97
2018-11-19 19:00:00 2.8 4 Noroeste 10 Noroeste 0 -- -- 100
2018-11-19 18:00:00 3 4 Noroeste 9 Noroeste 0 -- -- 100
2018-11-19 17:00:00 3.5 6 Noroeste 13 Noroeste 0 -- -- 100
2018-11-19 16:00:00 3.9 6 Noroeste 10 Noroeste 0 -- -- 99
2018-11-19 15:00:00 4.6 6 Noroeste 13 Este 0 -- -- 93
2018-11-19 14:00:00 5.2 7 Sudeste 17 Sudeste 0 -- -- 73
2018-11-19 13:00:00 4.8 6 Este 19 Sur 0 -- -- 79
2018-11-19 12:00:00 5 9 Este 16 Sudeste 0 -- -- 79
2018-11-19 11:00:00 3.6 0 Calma 10 Sur 0 -- -- 85
2018-11-19 10:00:00 1.5 5 Sudeste 9 Sur 0 -- -- 91
2018-11-19 09:00:00 1.9 3 Oeste 11 Sudeste 0 -- -- 91
2018-11-19 08:00:00 1.5 4 Sudeste 26 Sudeste 0 -- -- 89
2018-11-19 07:00:00 2.4 9 Sudeste 37 Sur 0 -- -- 87
2018-11-19 06:00:00 2.5 29 Sur 39 Sur 0 -- -- 91
2018-11-19 05:00:00 2.5 26 Sur 50 Sudeste 0 -- -- 92
2018-11-19 04:00:00 2.9 41 Sur 59 Sur 0 -- -- 90
2018-11-19 03:00:00 3.1 33 Sur 65 Sur 0 -- -- 89
2018-11-19 02:00:00 2.8 35 Sudeste 72 Sudeste 0.2 -- -- 92
2018-11-19 01:00:00 2.8 19 Este 58 Este 0 -- -- 91
2018-11-19 00:00:00 2.8 26 Este 62 Sudeste 0.2 -- -- 90
2018-11-18 23:00:00 2.8 25 Este 58 Sudeste 0 -- -- 90
2018-11-18 22:00:00 2.8 21 Sudeste 53 Sudeste 0 -- -- 89
2018-11-18 21:00:00 3.1 25 Este 54 Este 0.4 -- -- 88
2018-11-18 20:00:00 3.6 26 Sudeste 46 Este 0.6 -- -- 89
2018-11-18 19:00:00 3.4 27 Sudeste 47 Sudeste 0 -- -- 97
2018-11-18 18:00:00 3.7 12 Este 40 Este 0.6 -- -- 91
2018-11-18 17:00:00 4 7 Norte 35 Sudeste 0.8 -- -- 91
2018-11-18 16:00:00 4.6 12 Este 38 Sudeste 0 -- -- 88
2018-11-18 15:00:00 5.1 13 Sudeste 37 Este 0 -- -- 83
2018-11-18 14:00:00 5.2 9 Este 39 Sudeste 0 -- -- 84
2018-11-18 13:00:00 5.5 7 Norte 38 Sur 0 -- -- 82
2018-11-18 12:00:00 5.3 17 Sudeste 41 Sudeste 0 -- -- 83
2018-11-18 11:00:00 5.5 12 Sudeste 30 Sudeste 0 -- -- 78
2018-11-18 10:00:00 6 14 Sur 30 Sur 0 -- -- 69
2018-11-18 09:00:00 5.5 19 Sudeste 26 Sudeste 0 -- -- 72
2018-11-18 08:00:00 5 23 Sudeste 31 Sur 0 -- -- 82
2018-11-18 07:00:00 5.1 22 Sudeste 33 Sur 0 -- -- 78
2018-11-18 06:00:00 4.7 25 Sudeste 37 Sur 0 -- -- 85
2018-11-18 05:00:00 5 22 Sudeste 31 Sudeste 0 -- -- 79
2018-11-18 04:00:00 4.8 24 Sudeste 33 Sur 0 -- -- 84
2018-11-18 03:00:00 5.1 22 Sur 29 Sur 0 -- -- 84
2018-11-18 02:00:00 5.3 19 Sur 30 Sudeste 0 -- -- 84
2018-11-18 01:00:00 5.1 19 Sur 25 Sur 0 -- -- 87
2018-11-18 00:00:00 5.1 17 Sur 25 Sudeste 0 -- -- 87
2018-11-17 23:00:00 4.7 11 Sur 18 Sudeste 0 -- -- 87
2018-11-17 22:00:00 5.1 16 Sudeste 18 Sudeste 0 -- -- 87
2018-11-17 21:00:00 5.7 12 Sudeste 21 Sudeste 0 -- -- 86
2018-11-17 20:00:00 5.2 5 Sudeste 12 Este 0 -- -- 90
2018-11-17 19:00:00 6 9 Este 12 Este 0 -- -- 89
2018-11-17 18:00:00 7.2 0 Calma 8 Sudeste 0 -- -- 89
2018-11-17 17:00:00 7.4 3 Oeste 7 Noroeste 0 -- -- 91
2018-11-17 16:00:00 7.8 3 Noroeste 6 Noroeste 0 -- -- 89
2018-11-17 15:00:00 8.2 0 Calma 6 Noroeste 0 -- -- 82
2018-11-17 14:00:00 9.7 2 Noroeste 7 Noroeste 0 -- -- 72
2018-11-17 13:00:00 10.3 3 Oeste 20 Sur 0 -- -- 64
2018-11-17 12:00:00 9.3 14 Sudeste 22 Sudeste 0 -- -- 69
2018-11-17 11:00:00 7.7 14 Sudeste 25 Sudeste 0 -- -- 74
2018-11-17 10:00:00 7 22 Sudeste 36 Sudeste 0 -- -- 76
2018-11-17 09:00:00 6.3 28 Sudeste 38 Sur 0 -- -- 79
2018-11-17 08:00:00 5.8 27 Sur 35 Sudeste 0 -- -- 83
2018-11-17 07:00:00 6.4 18 Sur 29 Sur 0 -- -- 79
2018-11-17 06:00:00 6 18 Sudeste 26 Sur 0 -- -- 85
2018-11-17 05:00:00 5.6 10 Sudeste 22 Sur 0 -- -- 84
2018-11-17 04:00:00 7.3 18 Sur 27 Sur 0 -- -- 75
2018-11-17 03:00:00 7.7 20 Sur 29 Sur 0 -- -- 72
2018-11-17 02:00:00 7.5 24 Sudeste 40 Sur 0 -- -- 73
2018-11-17 01:00:00 6.9 28 Sur 35 Sur 0 -- -- 83
2018-11-17 00:00:00 7.5 25 Sudeste 38 Sudeste 0 -- -- 79
2018-11-16 23:00:00 7.8 31 Sur 42 Sur 0 -- -- 72
2018-11-16 22:00:00 7.2 27 Sudeste 46 Sur 0 -- -- 84
2018-11-16 21:00:00 6.8 26 Sur 44 Sur 0 -- -- 89
2018-11-16 20:00:00 7.7 23 Sur 32 Sur 0 -- -- 78
2018-11-16 19:00:00 7 11 Este 32 Sudeste 0 -- -- 89
2018-11-16 18:00:00 7.9 10 Sudeste 22 Sudeste 0 -- -- 81
2018-11-16 17:00:00 8.3 11 Sudeste 26 Sur 0 -- -- 78
2018-11-16 16:00:00 8.8 5 Sur 20 Este 0 -- -- 75
2018-11-16 15:00:00 9.2 6 Sur 24 Sur 0 -- -- 75
2018-11-16 14:00:00 9 6 Este 18 Este 0 -- -- 77
2018-11-16 13:00:00 9.2 6 Nordeste 25 Nordeste 0 -- -- 74
2018-11-16 12:00:00 9.6 5 Noroeste 21 Este 0 -- -- 71
2018-11-16 11:00:00 9.3 5 Sur 32 Sudeste 0 -- -- 70
2018-11-16 10:00:00 8.1 19 Sudeste 36 Sur 0 -- -- 76
2018-11-16 09:00:00 7.5 17 Sudeste 39 Sudeste 0 -- -- 80
2018-11-16 08:00:00 7.2 27 Sudeste 41 Este 0 -- -- 80
2018-11-16 07:00:00 6.8 26 Sur 33 Sur 0 -- -- 82
2018-11-16 06:00:00 7.1 26 Sur 35 Sur 0 -- -- 79
2018-11-16 05:00:00 7.3 19 Sudeste 26 Sur 0 -- -- 76
2018-11-16 04:00:00 8.7 15 Sur 24 Sur 0 -- -- 66
2018-11-16 03:00:00 8.8 15 Sur 25 Sudeste 0 -- -- 67
2018-11-16 02:00:00 7.8 21 Sudeste 30 Sur 0 -- -- 77
2018-11-16 01:00:00 8 23 Sudeste 30 Sur 0 -- -- 72
2018-11-16 00:00:00 8.2 21 Sudeste 23 Sudeste 0 -- -- 70
2018-11-15 23:00:00 8.1 18 Sudeste 21 Sur 0 -- -- 74
2018-11-15 22:00:00 7.7 10 Sudeste 23 Sur 0 -- -- 76
2018-11-15 21:00:00 7.9 15 Sur 23 Sur 0 -- -- 76
2018-11-15 20:00:00 8 18 Sur 25 Sudeste 0 -- -- 76
2018-11-15 19:00:00 6.7 13 Sudeste 17 Sudeste 0 -- -- 86
2018-11-15 18:00:00 7.1 10 Sudeste 22 Sudeste 0 -- -- 83
2018-11-15 17:00:00 8.1 12 Sur 20 Sudeste 0 -- -- 80
2018-11-15 16:00:00 8.6 9 Sudeste 17 Sudeste 0 -- -- 76
2018-11-15 15:00:00 8.8 8 Sudeste 19 Sur 0 -- -- 74
2018-11-15 14:00:00 8.5 5 Este 19 Sudeste 0 -- -- 77
2018-11-15 13:00:00 8.7 4 Nordeste 19 Este 0 -- -- 75
2018-11-15 12:00:00 7.9 10 Este 27 Este 0 -- -- 79
2018-11-15 11:00:00 7.7 5 Noroeste 17 Sudoeste 0 -- -- 74
2018-11-15 10:00:00 7 9 Sudoeste 28 Sudoeste 0 -- -- 82
2018-11-15 09:00:00 6.6 6 Este 28 Sudoeste 0 -- -- 84
2018-11-15 08:00:00 6.5 15 Sudeste 44 Sur 0 -- -- 81
2018-11-15 07:00:00 6.6 29 Sur 51 Sur 0 -- -- 80
2018-11-15 06:00:00 6.6 27 Sur 48 Sur 0 -- -- 84
2018-11-15 05:00:00 6.2 30 Sur 50 Sur 0 -- -- 90
2018-11-15 04:00:00 7.1 32 Sur 55 Sur 0 -- -- 80
2018-11-15 03:00:00 7.2 23 Sudeste 49 Sudeste 0 -- -- 82
2018-11-15 02:00:00 7.5 29 Sudeste 53 Sur 0 -- -- 82
2018-11-15 01:00:00 7 28 Sur 50 Sur 0 -- -- 89
2018-11-15 00:00:00 7.5 36 Sur 48 Sudeste 0 -- -- 83
2018-11-14 23:00:00 7.6 29 Sur 40 Sudeste 0 -- -- 82
2018-11-14 22:00:00 7.4 30 Sudeste 44 Sur 0 -- -- 81
2018-11-14 21:00:00 7.9 23 Sudeste 28 Sudeste 0 -- -- 75
2018-11-14 20:00:00 8.3 14 Sudeste 26 Sur 0 -- -- 68
2018-11-14 19:00:00 9.1 17 Sudeste 26 Sur 0 -- -- 64
2018-11-14 18:00:00 8.7 20 Sur 25 Sur 0 -- -- 73
2018-11-14 17:00:00 9.2 17 Sur 23 Sur 0 -- -- 72
2018-11-14 16:00:00 10.2 12 Sudeste 23 Sudeste 0 -- -- 66
2018-11-14 15:00:00 11.8 8 Sur 19 Este 0 -- -- 62
2018-11-14 14:00:00 12.5 9 Sur 17 Sur 0 -- -- 57
2018-11-14 13:00:00 12.4 9 Sur 23 Sudeste 0 -- -- 56
2018-11-14 12:00:00 12 15 Sudeste 37 Sudeste 0 -- -- 53
2018-11-14 11:00:00 10.6 20 Sudeste 34 Sudeste 0 -- -- 58
2018-11-14 10:00:00 9.8 18 Sudeste 32 Sur 0 -- -- 59
2018-11-14 09:00:00 9.5 21 Sudeste 33 Sur 0 -- -- 60
2018-11-14 08:00:00 9.6 28 Sur 35 Sur 0 -- -- 59
2018-11-14 07:00:00 8.7 22 Sudeste 34 Sur 0 -- -- 63
2018-11-14 06:00:00 9.7 25 Sur 35 Sur 0 -- -- 57
2018-11-14 05:00:00 8.7 26 Sur 30 Sur 0 -- -- 61
2018-11-14 04:00:00 8.3 21 Sur 27 Sudeste 0 -- -- 58
2018-11-14 03:00:00 8.3 23 Sudeste 29 Sudeste 0 -- -- 60
2018-11-14 02:00:00 8.4 23 Sudeste 30 Sudeste 0 -- -- 52
2018-11-14 01:00:00 8.2 23 Sudeste 27 Sudeste 0 -- -- 50
2018-11-14 00:00:00 7.6 13 Sudeste 24 Sudeste 0 -- -- 53
2018-11-13 23:00:00 7.8 17 Sudeste 23 Sudeste 0 -- -- 51
2018-11-13 22:00:00 8.6 20 Sudeste 30 Sudeste 0 -- -- 50
2018-11-13 21:00:00 9.1 24 Sudeste 30 Sudeste 0 -- -- 46
2018-11-13 20:00:00 9 26 Sudeste 34 Sudeste 0 -- -- 57
2018-11-13 19:00:00 8.8 21 Sudeste 26 Sudeste 0 -- -- 65
2018-11-13 18:00:00 8.3 19 Sudeste 22 Sudeste 0 -- -- 70
2018-11-13 17:00:00 10 15 Sudeste 23 Sudeste 0 -- -- 65
2018-11-13 16:00:00 10.4 11 Sur 32 Sudeste 0 -- -- 62
2018-11-13 15:00:00 11.1 21 Sudeste 41 Este 0 -- -- 63
2018-11-13 14:00:00 10.3 19 Sudeste 45 Sudeste 0 -- -- 72
2018-11-13 13:00:00 9.6 9 Sudeste 31 Sudeste 0 -- -- 75
2018-11-13 12:00:00 9 13 Este 33 Este 0 -- -- 78
2018-11-13 11:00:00 7.7 20 Sudeste 33 Este 0 -- -- 84
2018-11-13 10:00:00 3.3 2 Oeste 17 Sudeste 0 -- -- 100
2018-11-13 09:00:00 3 3 Sudeste 6 Sudeste 0 -- -- 100
2018-11-13 08:00:00 3 0 Calma 5 Sur 0 -- -- 100
2018-11-13 07:00:00 3 4 Sur 8 Oeste 0 -- -- 100
2018-11-13 06:00:00 3.8 3 Oeste 27 Sudeste 0 -- -- 99
2018-11-13 05:00:00 4 7 Sudoeste 27 Este 0 -- -- 97
2018-11-13 04:00:00 4 0 Calma 24 Sudeste 0 -- -- 98
2018-11-13 03:00:00 4.8 9 Sur 17 Sudeste 0 -- -- 94
2018-11-13 02:00:00 5.2 4 Nordeste 21 Este 0 -- -- 93
2018-11-13 01:00:00 4.5 5 Sudeste 13 Este 0 -- -- 95
2018-11-13 00:00:00 4.1 4 Este 19 Este 0 -- -- 93
2018-11-12 23:00:00 5.5 7 Este 15 Sudeste 0 -- -- 86
2018-11-12 22:00:00 6.3 2 Sudoeste 25 Sudeste 0.2 -- -- 83
2018-11-12 21:00:00 6.4 12 Sudeste 35 Sur 0 -- -- 85
2018-11-12 20:00:00 6.6 16 Sudeste 31 Sur 0.2 -- -- 83
2018-11-12 19:00:00 6.6 10 Sur 39 Sur 0 -- -- 83
2018-11-12 18:00:00 6.8 11 Sur 32 Sudoeste 0 -- -- 80
2018-11-12 17:00:00 6.7 6 Nordeste 55 Este 0 -- -- 81
2018-11-12 16:00:00 6.3 14 Sudeste 46 Sudoeste 0.6 -- -- 84
2018-11-12 15:00:00 5.7 18 Sudeste 49 Sur 3 -- -- 89
2018-11-12 14:00:00 6.1 9 Noroeste 31 Sur 0.8 -- -- 91
2018-11-12 13:00:00 5.8 11 Sudeste 30 Sur 0 -- -- 93
2018-11-12 12:00:00 5.8 6 Norte 24 Sur 0.4 -- -- 94
2018-11-12 11:00:00 5.8 13 Sudeste 25 Sur 0.6 -- -- 90
2018-11-12 10:00:00 5.4 8 Sur 25 Sudoeste 0.4 -- -- 95
2018-11-12 09:00:00 5.8 10 Sur 28 Sur 0.4 -- -- 90
2018-11-12 08:00:00 5.9 19 Sudeste 54 Sudeste 0.8 -- -- 88
2018-11-12 07:00:00 6 25 Sudeste 57 Sur 0.4 -- -- 87
2018-11-12 06:00:00 6.2 27 Sudeste 53 Sudeste 0.2 -- -- 85
2018-11-12 05:00:00 6.4 17 Sudeste 46 Sudeste 0 -- -- 85
2018-11-12 04:00:00 6.2 18 Sudeste 54 Sur 0 -- -- 90
2018-11-12 03:00:00 6.6 25 Sur 63 Sur 0 -- -- 86
2018-11-12 02:00:00 7.3 28 Sudeste 64 Sudeste 0 -- -- 81
2018-11-12 01:00:00 7.7 31 Sudeste 60 Sur 0 -- -- 79
2018-11-12 00:00:00 7.4 34 Sudeste 66 Sudeste 0 -- -- 79
2018-11-11 23:00:00 7.2 26 Sudeste 85 Sur 0.2 -- -- 82
2018-11-11 22:00:00 7.5 30 Sudeste 71 Sudeste 0 -- -- 83
2018-11-11 21:00:00 7.5 24 Sudeste 63 Sur 0 -- -- 87
2018-11-11 20:00:00 7.1 30 Sudeste 58 Sur 0 -- -- 89
2018-11-11 19:00:00 7.5 33 Sudeste 67 Sur 0 -- -- 85
2018-11-11 18:00:00 6.8 31 Sudeste 62 Sudeste 0.6 -- -- 91
2018-11-11 17:00:00 7.2 22 Sudeste 55 Sudeste 0.6 -- -- 85
2018-11-11 16:00:00 7.6 23 Sudeste 72 Sur 0.8 -- -- 86
2018-11-11 15:00:00 7.7 26 Sudeste 59 Sudeste 0 -- -- 85
2018-11-11 14:00:00 8.6 21 Sudeste 52 Sudeste 0 -- -- 77
2018-11-11 13:00:00 8.3 24 Sudeste 97 Sudeste 0 -- -- 79
2018-11-11 12:00:00 6.9 27 Sudeste 69 Sudeste 0 -- -- 89
2018-11-11 11:00:00 6.8 31 Sudeste 76 Sudeste 0 -- -- 90
2018-11-11 10:00:00 7 36 Sudeste 78 Sur 0 -- -- 86
2018-11-11 09:00:00 6.8 27 Sudeste 60 Sur 0 -- -- 76
2018-11-11 08:00:00 7.4 26 Sudeste 84 Sur 0 -- -- 68
2018-11-11 07:00:00 7.3 43 Sudeste 120 Sur 0.4 -- -- 67
2018-11-11 06:00:00 7.2 53 Sudeste 99 Sur 0 -- -- 80
2018-11-11 05:00:00 6.7 28 Sudeste 85 Sudeste 0 -- -- 79
2018-11-11 04:00:00 6.3 23 Sudeste 92 Sur 0 -- -- 84
2018-11-11 03:00:00 6.6 23 Sudeste 80 Sudeste 0 -- -- 72
2018-11-11 02:00:00 5.4 13 Nordeste 67 Sur 0 -- -- 79
2018-11-11 01:00:00 5.2 17 Nordeste 98 Sudeste 0 -- -- 79
2018-11-11 00:00:00 5.7 26 Sudeste 92 Sur 0 -- -- 72
2018-11-10 23:00:00 6.1 30 Sudeste 89 Sur 0.2 -- -- 77
2018-11-10 22:00:00 5.6 24 Sudeste 84 Noroeste 0 -- -- 89
2018-11-10 21:00:00 5.8 25 Nordeste 77 Norte 0 -- -- 86
2018-11-10 20:00:00 5.6 45 Norte 84 Norte 0 -- -- 87
2018-11-10 19:00:00 5.7 22 Norte 96 Norte 0 -- -- 85
2018-11-10 18:00:00 6 32 Norte 118 Norte 0 -- -- 85
2018-11-10 17:00:00 6.3 50 Norte 111 Norte 0.2 -- -- 88
2018-11-10 16:00:00 6.3 37 Norte 94 Norte 0.4 -- -- 95
2018-11-10 15:00:00 6.5 41 Norte 84 Norte 1 -- -- 93
2018-11-10 14:00:00 6.5 26 Norte 82 Norte 0.8 -- -- 95
2018-11-10 13:00:00 6 50 Norte 82 Norte 0.2 -- -- 95
2018-11-10 12:00:00 6.1 46 Norte 88 Noroeste 0 -- -- 95
2018-11-10 11:00:00 6.4 44 Norte 82 Norte 0.4 -- -- 95
2018-11-10 10:00:00 6.4 32 Norte 94 Norte 0.4 -- -- 96
2018-11-10 09:00:00 6.3 26 Norte 100 Sur 0.8 -- -- 95
2018-11-10 08:00:00 6.4 26 Nordeste 72 Noroeste 0.8 -- -- 94
2018-11-10 07:00:00 6.4 31 Sudeste 85 Sur 0.8 -- -- 90
2018-11-10 06:00:00 6.3 26 Sudeste 84 Sur 0.6 -- -- 91
2018-11-10 05:00:00 6.5 28 Sudeste 81 Sur 0.4 -- -- 89
2018-11-10 04:00:00 5.5 35 Sudeste 103 Sur 0 -- -- 95
2018-11-10 03:00:00 5.7 32 Sudeste 86 Sur 0.4 -- -- 96
2018-11-10 02:00:00 5.1 15 Sudeste 69 Sur 0 -- -- 98
2018-11-10 01:00:00 5.6 21 Sudeste 64 Sudeste 0 -- -- 90
2018-11-10 00:00:00 5.7 17 Sudeste 67 Sudeste 0.2 -- -- 90